Airfield :
LOGIN :

Register | Disclaimer

   EN    FR    IT 

 










Legend :    VFR   Marginal VFR   IFR   Intensive IFR   Very Intensive IFR
Visi :
Ceiling :
>= 8 km
>= 3000ft
5 to 8 km
1000 to 3000 ft
1500m to 5 km
500 to 1000 ft
800 to 1500m
200 to 500 ft
< 800m
< 200 ft
Symbols :   Thunderstorms  Fog  Heavy snow  Heavy precipitations  Wind > 20 kt
SIGMETs :     Misc.  Thunderstorms  Icing  Turbulence  Mountain Waves  Volcanic Ashes






- Airport Elevation : 1090 ft
- IATA code : CFE


LFLC - Clermont-Ferrand Auvergne

CURRENT METAR :
  • 270900Z AUTO VRB03KT 9999 BKN043 BKN054 06/M02 Q0994 TEMPO FEW030TCU SCT035

EXPIRED METARs :
  • 270830Z AUTO 26010KT 230V300 9999 SCT043 SCT049 BKN060 05/M02 Q0994 TEMPO FEW030TCU SCT035
  • 270800Z AUTO VRB05KT 9999 FEW041 SCT047 05/M02 Q0994 TEMPO FEW030TCU SCT035
  • 270730Z AUTO 23010KT 190V260 9999 BKN035 BKN041 05/M01 Q0993 TEMPO FEW030TCU SCT035
  • 270700Z AUTO 25005KT 190V320 9999 BKN033 BKN042 05/M01 Q0993 TEMPO FEW030TCU SCT035
  • 270630Z AUTO VRB06KT 9999 BKN032 BKN038 04/M00 Q0993 TEMPO FEW030TCU SCT035

TAF TAF LFLC
Valid from the 27 at 06:00 until the 28 at 06:00 UTC


270500Z 2706/2806 23008KT 9999 BKN050
PROB40
TEMPO 2708/2718 FEW030TCU SCT035
BECMG 2718/2721 31009KT
PROB30
TEMPO 2721/2806 4000 -SN BKN011
ATIS : +33 4 73 62 74 38



MET'MAP, your aeronautical weather chart ! - Copyright ORBIFLY December 2007 - Disclaimer

ORBIFLY MET'MAP TEAM :

Programming & Development : Alexandra Zaïnal
Concept & original design : Baudouin d'Aumeries
Assistance for programming : Marc-Olivier Méhu
Technical & hardware support : Manuel Goepfert

Contact : metmap@orbifly.com




SOURCES & CREDITS :

   NOAA